Tiempo atmosférico en la estación meteorológica de Castejon De Valdejasa, Zaragoza (442 m.)

Fecha
DESCASC
Temp. máxima en grados centígrados (hora)
DESCASC
Temp. mínima en grados centígrados (hora)
DESCASC
Temp. media en grados centígrados
DESCASC
Racha de viento máxima en m/sg (hora)
DESCASC
Velocidad máxima media en intervalos de 10 minutos(hora)
DESCASC
Precipitaciones diarias en mm
DESCASC
Precipitaciones de 00:00 a 06:00 en mm
DESCASC
Precipitaciones de 06:00 a 12:00 en mm
DESCASC
Precipitaciones de 12:00 a 18:00 en mm
DESCASC
Precipitaciones de 18:00 a 24:00 en mm
DESCASC
21-08-2017 33.7 (17:50) 14.5 (08:10) 24.1 10.83 (14:20) 6.39 (20:20) 0 0 0 0 0
20-08-2017 28.5 (18:20) 12.1 (07:10) 20.3 11.67 (05:10) 7.78 (05:10) 0 0 0 0 0
19-08-2017 27.8 (17:20) 15.8 (07:20) 21.8 13.06 (05:20) 7.5 (10:40) 0 0 0 0 0
18-08-2017 29.8 (15:20) 17.7 (23:50) 23.8 14.17 (16:40) 8.89 (16:40) 0 0 0 0 0
17-08-2017 34.7 (19:00) 16.1 (00:00) 25.4 7.5 (16:10) 4.17 (13:10) 0 0 0 0 0
16-08-2017 30.6 (18:20) 15.5 (00:00) 23.1 10 (19:30) 6.11 (19:50) 0.2 0 0.2 0 0
15-08-2017 32.5 (17:20) 19.3 (00:00) 25.9 15.83 (00:20) 11.11 (00:20) 9 0 0 0 9
14-08-2017 33.7 (17:10) 18.4 (07:00) 26.1 15.28 (19:30) 11.39 (19:00) 0 0 0 0 0
13-08-2017 32.2 (16:50) 12.5 (00:00) 22.4 10 (20:20) 7.5 (20:30) 0 0 0 0 0
12-08-2017 28.4 (18:00) 10.1 (00:00) 19.3 10.83 (01:00) 7.22 (00:30) 0 0 0 0 0
11-08-2017 22.8 (17:10) 9.9 (00:00) 16.3 16.11 (18:20) 10.56 (17:20) 0 0 0 0 0
10-08-2017 20.5 (16:50) 11.2 (00:00) 15.8 15.83 (14:50) 10 (14:30) 0 0 0 0 0
09-08-2017 20.7 (13:50) 10.5 (00:00) 15.6 12.5 (16:50) 7.5 (16:50) 0 0 0 0 0
08-08-2017 24.5 (00:00) 15.1 (00:00) 19.8 18.61 (13:00) 11.94 (13:20) 0 0 0 0 0
07-08-2017 33.1 (15:10) 18.1 (00:00) 25.6 16.11 (19:30) 12.22 (19:30) 0 0 0 0 0
06-08-2017 28.4 (19:40) 14 (00:00) 21.2 11.94 (03:10) 7.78 (00:50) 0 0 0 0 0
05-08-2017 31 (16:20) 16.3 (00:00) 23.6 13.33 (18:20) 8.61 (18:10) 0 0 0 0 0
04-08-2017 34.9 (18:00) 18.5 (00:00) 26.7 11.11 (14:20) 6.39 (13:10) 0 0 0 0 0
03-08-2017 36.6 (17:30) 21.6 (00:00) 29.1 8.61 (03:40) 6.67 (03:40) 0 0 0 0 0
02-08-2017 34.6 (17:50) 17.9 (00:00) 26.2 17.5 (17:50) 7.22 (19:00) 0 0 0 0 0
01-08-2017 33.1 (17:40) 16.2 (00:00) 24.6 10 (17:50) 7.22 (17:50) 0 0 0 0 0
31-07-2017 34.1 (16:30) 16.7 (00:00) 25.4 14.17 (16:50) 8.61 (17:00) 0 0 0 0 0
30-07-2017 37.2 (17:50) 21.8 (00:00) 29.5 10 (20:20) 8.06 (20:20) 0 0 0 0 0
29-07-2017 36.6 (18:10) 17.8 (00:00) 27.2 9.72 (19:40) 7.5 (19:40) 0 0 0 0 0
28-07-2017 35.3 (17:20) 17.6 (00:00) 26.4 7.22 (17:20) 4.72 (10:00) 0 0 0 0 0
27-07-2017 34 (17:30) 16.5 (00:00) 25.3 8.06 (15:50) 5 (02:30) 0 0 0 0 0
26-07-2017 28.3 (18:00) 13.1 (00:00) 20.7 15 (04:40) 9.44 (04:30) 0 0 0 0 0
25-07-2017 23.1 (15:50) 13.4 (00:00) 18.3 16.94 (14:30) 10.56 (17:40) 0 0 0 0 0
24-07-2017 24.6 (15:20) 15.5 (00:00) 20.1 18.06 (19:00) 10 (19:00) 0 0 0 0 0
23-07-2017 29.3 (16:40) 14.6 (00:00) 21.9 11.11 (20:00) 6.67 (19:40) 0 0 0 0 0

Gráficas

Temp. máximas Temp. mínimas Temp. medias Precipitaciones Rachas de viento máximas Velocidades máximas media en intervalos de 10 minutos

Datos horarios

Fecha y hora oficial Temperatura (ºC) Velocidad del viento (km/h) Dirección del viento Racha (km/h) Dirección de racha Precipitación (mm) Presión (hPa) Tendencia (hPa) Humedad (%)
2017-08-21 23:00:00 25.4 22 Este 28 Nordeste 0 -- -- 40
2017-08-21 22:00:00 27 19 Este 30 Este 0 -- -- 35
2017-08-21 21:00:00 29.2 18 Este 30 Este 0 -- -- 32
2017-08-21 20:00:00 31.7 22 Este 29 Este 0 -- -- 28
2017-08-21 19:00:00 33.1 14 Este 28 Este 0 -- -- 28
2017-08-21 18:00:00 33.5 15 Este 30 Este 0 -- -- 28
2017-08-21 17:00:00 33.2 12 Este 27 Este 0 -- -- 29
2017-08-21 16:00:00 32.7 7 Sudeste 25 Sudeste 0 -- -- 29
2017-08-21 15:00:00 31.7 13 Sudeste 39 Este 0 -- -- 31
2017-08-21 14:00:00 30.4 12 Sudeste 29 Este 0 -- -- 31
2017-08-21 13:00:00 29.1 9 Sudeste 26 Este 0 -- -- 33
2017-08-21 12:00:00 27.1 12 Este 24 Este 0 -- -- 44
2017-08-21 11:00:00 24.9 12 Este 21 Este 0 -- -- 52
2017-08-21 10:00:00 22.6 13 Este 19 Sudeste 0 -- -- 60
2017-08-21 09:00:00 17.8 11 Este 15 Nordeste 0 -- -- 78
2017-08-21 08:00:00 14.7 6 Nordeste 9 Nordeste 0 -- -- 76
2017-08-21 07:00:00 15 2 Oeste 10 Este 0 -- -- 71
2017-08-21 06:00:00 15.8 8 Nordeste 13 Nordeste 0 -- -- 67
2017-08-21 05:00:00 14.9 11 Nordeste 15 Nordeste 0 -- -- 71
2017-08-21 04:00:00 14.9 10 Nordeste 15 Nordeste 0 -- -- 71
2017-08-21 03:00:00 15 12 Nordeste 13 Nordeste 0 -- -- 70
2017-08-21 02:00:00 16.1 7 Nordeste 10 Nordeste 0 -- -- 66
2017-08-21 01:00:00 17.4 7 Nordeste 9 Este 0 -- -- 62
2017-08-21 00:00:00 18.3 3 Este 10 Oeste 0 -- -- 58
2017-08-20 23:00:00 19.6 7 Oeste 13 Sudoeste 0 -- -- 55
2017-08-20 22:00:00 22 4 Este 24 Oeste 0 -- -- 47
2017-08-20 21:00:00 23.9 13 Noroeste 28 Oeste 0 -- -- 41
2017-08-20 20:00:00 27 14 Oeste 29 Oeste 0 -- -- 29
2017-08-20 19:00:00 28.1 20 Oeste 34 Oeste 0 -- -- 28
2017-08-20 18:00:00 28.3 19 Oeste 33 Oeste 0 -- -- 27
2017-08-20 17:00:00 28.1 18 Oeste 34 Oeste 0 -- -- 27
2017-08-20 16:00:00 27.4 20 Oeste 31 Oeste 0 -- -- 27
2017-08-20 15:00:00 25.9 19 Oeste 32 Oeste 0 -- -- 33
2017-08-20 14:00:00 23.8 19 Oeste 32 Oeste 0 -- -- 36
2017-08-20 13:00:00 21.7 18 Oeste 31 Oeste 0 -- -- 43
2017-08-20 12:00:00 19.8 18 Oeste 35 Oeste 0 -- -- 51
2017-08-20 11:00:00 17.7 25 Oeste 38 Oeste 0 -- -- 59
2017-08-20 10:00:00 15.6 24 Oeste 37 Oeste 0 -- -- 68
2017-08-20 09:00:00 14 21 Oeste 36 Oeste 0 -- -- 77
2017-08-20 08:00:00 12.2 18 Oeste 33 Oeste 0 -- -- 84
2017-08-20 07:00:00 12.2 14 Oeste 32 Oeste 0 -- -- 83
2017-08-20 06:00:00 12.8 23 Oeste 42 Oeste 0 -- -- 82
2017-08-20 05:00:00 13.3 25 Oeste 35 Oeste 0 -- -- 80
2017-08-20 04:00:00 13.2 19 Oeste 34 Oeste 0 -- -- 82
2017-08-20 03:00:00 13.8 21 Oeste 30 Oeste 0 -- -- 79
2017-08-20 02:00:00 14.5 17 Oeste 37 Oeste 0 -- -- 77
2017-08-20 01:00:00 16.1 22 Oeste 33 Oeste 0 -- -- 69
2017-08-20 00:00:00 17.2 19 Oeste 29 Oeste 0 -- -- 65
2017-08-19 23:00:00 18.4 17 Oeste 24 Oeste 0 -- -- 62
2017-08-19 22:00:00 21.6 7 Oeste 28 Noroeste 0 -- -- 46
2017-08-19 21:00:00 23.2 15 Noroeste 31 Noroeste 0 -- -- 44
2017-08-19 20:00:00 25.8 16 Noroeste 30 Oeste 0 -- -- 34
2017-08-19 19:00:00 26.9 19 Oeste 32 Oeste 0 -- -- 30
2017-08-19 18:00:00 27.4 22 Oeste 35 Oeste 0 -- -- 32
2017-08-19 17:00:00 27.7 19 Oeste 34 Oeste 0 -- -- 32
2017-08-19 16:00:00 26.9 20 Oeste 35 Sudoeste 0 -- -- 34
2017-08-19 15:00:00 25.9 21 Oeste 34 Oeste 0 -- -- 39
2017-08-19 14:00:00 24.5 24 Oeste 39 Noroeste 0 -- -- 44
2017-08-19 13:00:00 22.8 22 Oeste 35 Oeste 0 -- -- 47
2017-08-19 12:00:00 21.7 23 Oeste 38 Oeste 0 -- -- 54
2017-08-19 11:00:00 19.9 23 Oeste 37 Oeste 0 -- -- 62
2017-08-19 10:00:00 18.5 22 Oeste 37 Oeste 0 -- -- 68
2017-08-19 09:00:00 16.9 18 Oeste 30 Oeste 0 -- -- 75
2017-08-19 08:00:00 16.1 11 Oeste 37 Oeste 0 -- -- 78
2017-08-19 07:00:00 15.9 14 Oeste 30 Noroeste 0 -- -- 80
2017-08-19 06:00:00 16.4 21 Oeste 47 Noroeste 0 -- -- 79
2017-08-19 05:00:00 16.4 19 Oeste 29 Oeste 0 -- -- 79
2017-08-19 04:00:00 16.7 13 Oeste 36 Noroeste 0 -- -- 77
2017-08-19 03:00:00 16.9 20 Noroeste 40 Oeste 0 -- -- 77
2017-08-19 02:00:00 17.3 22 Oeste 42 Oeste 0 -- -- 75
2017-08-19 01:00:00 17.7 22 Oeste 36 Oeste 0 -- -- 74
2017-08-19 00:00:00 17.7 27 Oeste 41 Oeste 0 -- -- 77
2017-08-18 23:00:00 19 22 Oeste 36 Oeste 0 -- -- 74
2017-08-18 22:00:00 20.5 14 Oeste 37 Oeste 0 -- -- 68
2017-08-18 21:00:00 21.9 21 Oeste 39 Oeste 0 -- -- 63
2017-08-18 20:00:00 23.9 22 Noroeste 48 Oeste 0 -- -- 55
2017-08-18 19:00:00 25.8 21 Oeste 49 Oeste 0 -- -- 50
2017-08-18 18:00:00 28.5 27 Noroeste 48 Oeste 0 -- -- 45
2017-08-18 17:00:00 28.9 31 Oeste 51 Oeste 0 -- -- 46
2017-08-18 16:00:00 29.8 26 Oeste 44 Oeste 0 -- -- 46
2017-08-18 15:00:00 29.5 24 Oeste 39 Oeste 0 -- -- 46
2017-08-18 14:00:00 28.1 22 Oeste 38 Oeste 0 -- -- 50
2017-08-18 13:00:00 28.3 21 Oeste 30 Oeste 0 -- -- 51
2017-08-18 12:00:00 26.8 14 Oeste 22 Oeste 0 -- -- 54
2017-08-18 11:00:00 25.5 3 Oeste 19 Sudoeste 0 -- -- 57
2017-08-18 10:00:00 23.2 6 Sudoeste 18 Oeste 0 -- -- 66
2017-08-18 09:00:00 21.5 6 Oeste 9 Oeste 0 -- -- 71
2017-08-18 08:00:00 21.1 7 Noroeste 14 Este 0 -- -- 69
2017-08-18 07:00:00 -- 8 Este 23 Este 0 -- -- --
2017-08-18 06:00:00 21.5 12 Este 22 Este 0 -- -- 70
2017-08-18 05:00:00 21.7 13 Este 28 Este 0 -- -- 69
2017-08-18 04:00:00 22.1 21 Este 29 Este 0 -- -- 69
2017-08-18 03:00:00 22.9 23 Este 36 Este 0 -- -- 67
2017-08-18 02:00:00 24.1 23 Este 35 Este 0 -- -- 61
2017-08-18 01:00:00 24.1 13 Nordeste 22 Nordeste 0 -- -- 49
2017-08-18 00:00:00 27.1 3 Nordeste 21 Este 0 -- -- 41
2017-08-17 23:00:00 25.5 10 Este 14 Este 0 -- -- 41
2017-08-17 22:00:00 27.3 9 Este 13 Nordeste 0 -- -- 38
2017-08-17 21:00:00 30.6 0 Calma 17 Sudeste 0 -- -- 32
2017-08-17 20:00:00 33.2 12 Este 18 Este 0 -- -- 27
2017-08-17 19:00:00 34.7 0 Calma 12 Sudoeste 0 -- -- 25
2017-08-17 18:00:00 34.1 9 Oeste 23 Oeste 0 -- -- 27
2017-08-17 17:00:00 33.4 12 Oeste 27 Oeste 0 -- -- 27
2017-08-17 16:00:00 32.9 12 Oeste 23 Sudoeste 0 -- -- 28
2017-08-17 15:00:00 31.6 13 Oeste 21 Oeste 0 -- -- 29
2017-08-17 14:00:00 29.2 12 Sudoeste 24 Oeste 0 -- -- 36
2017-08-17 13:00:00 27.2 15 Oeste 22 Oeste 0 -- -- 40
2017-08-17 12:00:00 24.8 11 Oeste 18 Oeste 0 -- -- 40
2017-08-17 11:00:00 22.3 12 Oeste 16 Oeste 0 -- -- 47
2017-08-17 10:00:00 20.1 9 Oeste 12 Oeste 0 -- -- 53
2017-08-17 09:00:00 18.3 3 Noroeste 6 Oeste 0 -- -- 56
2017-08-17 08:00:00 16.3 2 Sudoeste 5 Este 0 -- -- 61
2017-08-17 07:00:00 16.6 3 Oeste 6 Noroeste 0 -- -- 65
2017-08-17 06:00:00 16.6 3 Oeste 7 Noroeste 0 -- -- 71
2017-08-17 05:00:00 17.3 2 Oeste 15 Oeste 0 -- -- 66
2017-08-17 04:00:00 17.1 6 Oeste 17 Oeste 0 -- -- 70
2017-08-17 03:00:00 17.3 9 Oeste 18 Oeste 0 -- -- 69
2017-08-17 02:00:00 17.5 9 Sudoeste 14 Oeste 0 -- -- 63
2017-08-17 01:00:00 18.7 9 Oeste 19 Oeste 0 -- -- 60
2017-08-17 00:00:00 19 9 Oeste 21 Oeste 0 -- -- 66
2017-08-16 23:00:00 20.4 13 Oeste 19 Oeste 0 -- -- 70
2017-08-16 22:00:00 22.5 9 Oeste 23 Oeste 0 -- -- 65
2017-08-16 21:00:00 26.2 14 Oeste 31 Noroeste 0 -- -- 44
2017-08-16 20:00:00 28.1 19 Noroeste 36 Oeste 0 -- -- 40
2017-08-16 19:00:00 30.4 12 Noroeste 27 Oeste 0 -- -- 35
2017-08-16 18:00:00 30.5 12 Oeste 23 Noroeste 0 -- -- 39
2017-08-16 17:00:00 30 15 Oeste 28 Oeste 0 -- -- 38
2017-08-16 16:00:00 29.1 15 Oeste 25 Oeste 0 -- -- 48
2017-08-16 15:00:00 28.3 17 Oeste 24 Sudoeste 0 -- -- 54
2017-08-16 14:00:00 26.1 13 Oeste 21 Oeste 0 -- -- 60
2017-08-16 13:00:00 24.4 12 Sudoeste 21 Sudoeste 0 -- -- 65
2017-08-16 12:00:00 21.9 15 Sudoeste 20 Oeste 0 -- -- 74
2017-08-16 11:00:00 19.8 10 Sudoeste 18 Sudoeste 0.2 -- -- 81
2017-08-16 10:00:00 18.1 7 Oeste 10 Oeste 0 -- -- 87
2017-08-16 09:00:00 16.5 0 Calma 5 Este 0 -- -- 92
2017-08-16 08:00:00 15.6 4 Este 7 Este 0 -- -- 93
2017-08-16 07:00:00 15.9 4 Nordeste 6 Este 0 -- -- 92
2017-08-16 06:00:00 16 4 Este 8 Nordeste 0 -- -- 91
2017-08-16 05:00:00 16.8 3 Norte 5 Nordeste 0 -- -- 88
2017-08-16 04:00:00 17.5 0 Calma 8 Oeste 0 -- -- 87
2017-08-16 03:00:00 17.7 6 Nordeste 9 Este 0 -- -- 90
2017-08-16 02:00:00 18.2 4 Este 6 Este 0 -- -- 87
2017-08-16 01:00:00 18.9 4 Este 15 Oeste 0 -- -- 85
2017-08-16 00:00:00 20 10 Oeste 15 Noroeste 0 -- -- 80
2017-08-15 23:00:00 22.7 5 Nordeste 12 Nordeste 0 -- -- 67
2017-08-15 22:00:00 23.2 7 Este 21 Nordeste 0 -- -- 67
2017-08-15 21:00:00 23.6 17 Este 35 Nordeste 0 -- -- 66
2017-08-15 20:00:00 22.6 25 Nordeste 56 Este 9 -- -- 73
2017-08-15 19:00:00 29.4 10 Noroeste 30 Este 0 -- -- 44
2017-08-15 18:00:00 30.9 23 Este 48 Este 0 -- -- 35
2017-08-15 17:00:00 32.4 21 Este 39 Este 0 -- -- 30
2017-08-15 16:00:00 32.4 21 Este 37 Sudeste 0 -- -- 32
2017-08-15 15:00:00 31.1 16 Este 35 Este 0 -- -- 34
2017-08-15 14:00:00 30.4 20 Sudeste 43 Este 0 -- -- 34
2017-08-15 13:00:00 28.4 27 Este 45 Este 0 -- -- 40
2017-08-15 12:00:00 26.6 28 Este 42 Este 0 -- -- 44
2017-08-15 11:00:00 24.7 25 Este 43 Este 0 -- -- 51
2017-08-15 10:00:00 21.3 32 Este 42 Este 0 -- -- 60
2017-08-15 09:00:00 20.5 31 Este 44 Este 0 -- -- 63
2017-08-15 08:00:00 19.4 26 Este 41 Este 0 -- -- 66
2017-08-15 07:00:00 19.5 27 Este 39 Este 0 -- -- 64
2017-08-15 06:00:00 19.5 24 Este 35 Este 0 -- -- 62
2017-08-15 05:00:00 20.1 18 Este 34 Este 0 -- -- 56
2017-08-15 04:00:00 20.9 30 Este 36 Este 0 -- -- 51
2017-08-15 03:00:00 21 26 Este 43 Este 0 -- -- 50
2017-08-15 02:00:00 22.1 33 Este 48 Este 0 -- -- 47
2017-08-15 01:00:00 22.7 28 Este 57 Este 0 -- -- 49
2017-08-15 00:00:00 23.4 28 Nordeste 51 Nordeste 0 -- -- 49
2017-08-14 23:00:00 24.6 32 Este 49 Este 0 -- -- 50
2017-08-14 22:00:00 26.8 34 Este 49 Este 0 -- -- 43
2017-08-14 21:00:00 28.5 33 Este 49 Este 0 -- -- 37
2017-08-14 20:00:00 30.5 36 Este 55 Este 0 -- -- 33
2017-08-14 19:00:00 31.6 41 Este 52 Este 0 -- -- 33
2017-08-14 18:00:00 32.9 31 Este 51 Este 0 -- -- 32
2017-08-14 17:00:00 33.4 26 Este 48 Sudeste 0 -- -- 31
2017-08-14 16:00:00 33.5 19 Este 39 Este 0 -- -- 31
2017-08-14 15:00:00 32.4 22 Este 36 Este 0 -- -- 33
2017-08-14 14:00:00 30.8 24 Este 36 Este 0 -- -- 35
2017-08-14 13:00:00 29.6 22 Este 39 Este 0 -- -- 37
2017-08-14 12:00:00 26.8 27 Este 41 Este 0 -- -- 45
2017-08-14 11:00:00 24.8 27 Este 37 Este 0 -- -- 49
2017-08-14 10:00:00 23 26 Este 43 Este 0 -- -- 51
2017-08-14 09:00:00 20.7 30 Este 44 Este 0 -- -- 59
2017-08-14 08:00:00 18.9 27 Este 36 Este 0 -- -- 65
2017-08-14 07:00:00 18.4 24 Este 36 Este 0 -- -- 67
2017-08-14 06:00:00 18.9 22 Este 33 Este 0 -- -- 66
2017-08-14 05:00:00 19.6 28 Este 42 Este 0 -- -- 64
2017-08-14 04:00:00 19.3 31 Este 46 Este 0 -- -- 71
2017-08-14 03:00:00 20.1 32 Este 51 Este 0 -- -- 71
2017-08-14 02:00:00 21.1 30 Este 47 Este 0 -- -- 67
2017-08-14 01:00:00 23 23 Este 32 Este 0 -- -- 55
2017-08-14 00:00:00 23.7 15 Este 21 Este 0 -- -- 51
2017-08-13 23:00:00 24.8 17 Este 25 Este 0 -- -- 48
2017-08-13 22:00:00 25.6 15 Este 20 Este 0 -- -- 40
2017-08-13 21:00:00 27.7 19 Este 36 Este 0 -- -- 35
2017-08-13 20:00:00 29.9 23 Este 33 Este 0 -- -- 32
2017-08-13 19:00:00 31.7 14 Sudeste 32 Sudeste 0 -- -- 24
2017-08-13 18:00:00 32.1 12 Este 28 Este 0 -- -- 24
2017-08-13 17:00:00 32.2 14 Este 28 Este 0 -- -- 24
2017-08-13 16:00:00 31.7 6 Sur 25 Este 0 -- -- 28
2017-08-13 15:00:00 29.6 12 Sudoeste 23 Sudoeste 0 -- -- 34
2017-08-13 14:00:00 28.8 7 Sudeste 20 Sudoeste 0 -- -- 36
2017-08-13 13:00:00 26.1 9 Oeste 20 Oeste 0 -- -- 43
2017-08-13 12:00:00 22.9 10 Oeste 19 Sudoeste 0 -- -- 53
2017-08-13 11:00:00 20.1 12 Oeste 18 Oeste 0 -- -- 61
2017-08-13 10:00:00 18.1 11 Oeste 15 Oeste 0 -- -- 67
2017-08-13 09:00:00 16.2 2 Sur 10 Este 0 -- -- 74
2017-08-13 08:00:00 13.5 6 Nordeste 13 Nordeste 0 -- -- 84
2017-08-13 07:00:00 13.4 7 Nordeste 12 Nordeste 0 -- -- 82
2017-08-13 06:00:00 13.7 8 Nordeste 9 Nordeste 0 -- -- 80
2017-08-13 05:00:00 14.7 4 Este 8 Este 0 -- -- 76
2017-08-13 04:00:00 15.1 4 Este 7 Este 0 -- -- 73
2017-08-13 03:00:00 16.1 2 Sudeste 6 Este 0 -- -- 67
2017-08-13 02:00:00 17.6 6 Noroeste 14 Oeste 0 -- -- 62
2017-08-13 01:00:00 18.6 0 Calma 12 Noroeste 0 -- -- 55
2017-08-13 00:00:00 19.5 8 Oeste 14 Oeste 0 -- -- 51
2017-08-12 23:00:00 22 2 Este 21 Noroeste 0 -- -- 44
2017-08-12 22:00:00 23.9 12 Noroeste 20 Noroeste 0 -- -- 38
2017-08-12 21:00:00 26 13 Noroeste 24 Noroeste 0 -- -- 35
2017-08-12 20:00:00 28.2 15 Oeste 25 Oeste 0 -- -- 30
2017-08-12 19:00:00 27.8 15 Oeste 30 Oeste 0 -- -- 30
2017-08-12 18:00:00 28.4 18 Oeste 38 Sudoeste 0 -- -- 30
2017-08-12 17:00:00 28.2 17 Oeste 28 Oeste 0 -- -- 31
2017-08-12 16:00:00 26.4 17 Oeste 30 Oeste 0 -- -- 34
2017-08-12 15:00:00 25.6 16 Sudoeste 30 Oeste 0 -- -- 35
2017-08-12 14:00:00 24 15 Oeste 25 Oeste 0 -- -- 40
2017-08-12 13:00:00 22.1 15 Oeste 24 Sudoeste 0 -- -- 46
2017-08-12 12:00:00 20.1 13 Oeste 20 Oeste 0 -- -- 52
2017-08-12 11:00:00 17.5 12 Oeste 18 Oeste 0 -- -- 60
2017-08-12 10:00:00 14.8 9 Oeste 14 Oeste 0 -- -- 68
2017-08-12 09:00:00 12.6 3 Noroeste 6 Nordeste 0 -- -- 77
2017-08-12 08:00:00 10.1 6 Nordeste 8 Nordeste 0 -- -- 84
2017-08-12 07:00:00 10.2 4 Este 6 Este 0 -- -- 83
2017-08-12 06:00:00 11 2 Norte 9 Oeste 0 -- -- 80
2017-08-12 05:00:00 11.5 6 Oeste 15 Oeste 0 -- -- 80
2017-08-12 04:00:00 12.1 6 Oeste 14 Oeste 0 -- -- 76
2017-08-12 03:00:00 12.2 6 Oeste 24 Oeste 0 -- -- 76
2017-08-12 02:00:00 13 9 Oeste 33 Noroeste 0 -- -- 74
2017-08-12 01:00:00 14 24 Oeste 39 Oeste 0 -- -- 69
2017-08-12 00:00:00 14.7 21 Oeste 38 Noroeste 0 -- -- 65
2017-08-11 23:00:00 15.7 24 Oeste 41 Oeste 0 -- -- 62
2017-08-11 22:00:00 16.9 19 Oeste 48 Oeste 0 -- -- 57
2017-08-11 21:00:00 18.5 26 Noroeste 53 Noroeste 0 -- -- 51
2017-08-11 20:00:00 20.8 23 Noroeste 54 Oeste 0 -- -- 43
2017-08-11 19:00:00 21.9 29 Noroeste 58 Noroeste 0 -- -- 39
2017-08-11 18:00:00 22.4 34 Oeste 56 Oeste 0 -- -- 38
2017-08-11 17:00:00 22.7 29 Noroeste 49 Oeste 0 -- -- 38
2017-08-11 16:00:00 22.4 33 Oeste 57 Oeste 0 -- -- 37
2017-08-11 15:00:00 21.4 30 Noroeste 53 Noroeste 0 -- -- 40
2017-08-11 14:00:00 20.4 32 Oeste 50 Oeste 0 -- -- 43
2017-08-11 13:00:00 19.3 25 Oeste 51 Oeste 0 -- -- 48
2017-08-11 12:00:00 17.5 32 Oeste 48 Oeste 0 -- -- 53
2017-08-11 11:00:00 16 27 Oeste 50 Oeste 0 -- -- 59
2017-08-11 10:00:00 14.5 28 Oeste 55 Oeste 0 -- -- 66
2017-08-11 09:00:00 12.8 26 Oeste 40 Noroeste 0 -- -- 74
2017-08-11 08:00:00 11.6 19 Oeste 28 Oeste 0 -- -- 77
2017-08-11 07:00:00 10.9 16 Oeste 34 Oeste 0 -- -- 79
2017-08-11 06:00:00 12.1 17 Oeste 41 Oeste 0 -- -- 73
2017-08-11 05:00:00 12 22 Oeste 45 Noroeste 0 -- -- 73
2017-08-11 04:00:00 12.3 28 Noroeste 48 Noroeste 0 -- -- 69
2017-08-11 03:00:00 12.1 26 Oeste 43 Noroeste 0 -- -- 69
2017-08-11 02:00:00 12.3 19 Noroeste 40 Noroeste 0 -- -- 71
2017-08-11 01:00:00 13 19 Noroeste 37 Noroeste 0 -- -- 73
2017-08-11 00:00:00 13.2 21 Noroeste 35 Oeste 0 -- -- 70
2017-08-10 23:00:00 13.7 16 Oeste 35 Noroeste 0 -- -- 68
2017-08-10 22:00:00 14.9 18 Noroeste 35 Noroeste 0 -- -- 65
2017-08-10 21:00:00 15.7 25 Noroeste 49 Noroeste 0 -- -- 64
2017-08-10 20:00:00 17.5 26 Noroeste 48 Noroeste 0 -- -- 59
2017-08-10 19:00:00 18.8 27 Noroeste 48 Noroeste 0 -- -- 56
2017-08-10 18:00:00 19.9 26 Noroeste 49 Noroeste 0 -- -- 53
2017-08-10 17:00:00 20.3 30 Noroeste 56 Oeste 0 -- -- 51
2017-08-10 16:00:00 19.8 30 Noroeste 50 Oeste 0 -- -- 55
2017-08-10 15:00:00 18.5 35 Oeste 57 Oeste 0 -- -- 59
2017-08-10 14:00:00 17.5 32 Oeste 53 Oeste 0 -- -- 60
2017-08-10 13:00:00 17.6 29 Oeste 55 Oeste 0 -- -- 57
2017-08-10 12:00:00 17.1 26 Oeste 45 Oeste 0 -- -- 58
2017-08-10 11:00:00 16.1 26 Oeste 48 Oeste 0 -- -- 61
2017-08-10 10:00:00 14.7 30 Oeste 47 Oeste 0 -- -- 67
2017-08-10 09:00:00 13 21 Oeste 36 Oeste 0 -- -- 74
2017-08-10 08:00:00 11.5 18 Oeste 35 Oeste 0 -- -- 81
2017-08-10 07:00:00 11.3 16 Oeste 30 Oeste 0 -- -- 81
2017-08-10 06:00:00 11.3 21 Oeste 38 Oeste 0 -- -- 80
2017-08-10 05:00:00 11.6 19 Noroeste 39 Oeste 0 -- -- 78
2017-08-10 04:00:00 11.6 22 Oeste 35 Oeste 0 -- -- 78
2017-08-10 03:00:00 12.3 17 Oeste 38 Noroeste 0 -- -- 76
2017-08-10 02:00:00 12.5 22 Noroeste 39 Oeste 0 -- -- 73
2017-08-10 01:00:00 12.4 19 Noroeste 32 Noroeste 0 -- -- 71
2017-08-10 00:00:00 12.9 18 Noroeste 33 Noroeste 0 -- -- 68
2017-08-09 23:00:00 13.6 21 Noroeste 45 Noroeste 0 -- -- 62
2017-08-09 22:00:00 14.5 18 Noroeste 37 Noroeste 0 -- -- 56
2017-08-09 21:00:00 16.2 21 Noroeste 45 Noroeste 0 -- -- 49
2017-08-09 20:00:00 18.5 17 Noroeste 37 Oeste 0 -- -- 42
2017-08-09 19:00:00 18 21 Noroeste 36 Noroeste 0 -- -- 44
2017-08-09 18:00:00 18.3 23 Noroeste 41 Noroeste 0 -- -- 44
2017-08-09 17:00:00 18.6 24 Noroeste 45 Noroeste 0 -- -- 48
2017-08-09 16:00:00 18.8 22 Noroeste 41 Noroeste 0 -- -- 47
2017-08-09 15:00:00 18.8 24 Noroeste 44 Noroeste 0 -- -- 51
2017-08-09 14:00:00 20.1 24 Noroeste 44 Noroeste 0 -- -- 48
2017-08-09 13:00:00 19.7 23 Noroeste 45 Oeste 0 -- -- 48
2017-08-09 12:00:00 18 17 Noroeste 37 Oeste 0 -- -- 53
2017-08-09 11:00:00 16.9 20 Oeste 27 Oeste 0 -- -- 61
2017-08-09 10:00:00 14.7 19 Oeste 30 Oeste 0 -- -- 70
2017-08-09 09:00:00 13.2 16 Oeste 22 Oeste 0 -- -- 77
2017-08-09 08:00:00 10.9 8 Oeste 12 Oeste 0 -- -- 87
2017-08-09 07:00:00 10.6 10 Oeste 14 Oeste 0 -- -- 88
2017-08-09 06:00:00 11 5 Oeste 9 Oeste 0 -- -- 84
2017-08-09 05:00:00 11.1 7 Noroeste 16 Oeste 0 -- -- 85
2017-08-09 04:00:00 11.2 11 Oeste 22 Oeste 0 -- -- 82
2017-08-09 03:00:00 12.3 14 Oeste 22 Oeste 0 -- -- 76
2017-08-09 02:00:00 12.1 13 Oeste 19 Oeste 0 -- -- 76
2017-08-09 01:00:00 14.1 12 Oeste 21 Oeste 0 -- -- 66
2017-08-09 00:00:00 15.1 16 Noroeste 34 Noroeste 0 -- -- 63
2017-08-08 23:00:00 15.6 13 Noroeste 24 Noroeste 0 -- -- 65
2017-08-08 22:00:00 16.9 14 Noroeste 26 Noroeste 0 -- -- 60
2017-08-08 21:00:00 18.7 16 Noroeste 31 Noroeste 0 -- -- 52
2017-08-08 20:00:00 20.4 18 Noroeste 41 Oeste 0 -- -- 49
2017-08-08 19:00:00 22 22 Noroeste 51 Oeste 0 -- -- 44
2017-08-08 18:00:00 23 30 Oeste 54 Noroeste 0 -- -- 40
2017-08-08 17:00:00 23.3 30 Oeste 59 Oeste 0 -- -- 39
2017-08-08 16:00:00 23 32 Noroeste 62 Oeste 0 -- -- 39
2017-08-08 15:00:00 22.4 34 Oeste 58 Oeste 0 -- -- 45
2017-08-08 14:00:00 21.8 30 Oeste 64 Oeste 0 -- -- 47
2017-08-08 13:00:00 20.6 41 Oeste 67 Oeste 0 -- -- 51
2017-08-08 12:00:00 19.8 33 Noroeste 59 Oeste 0 -- -- 52
2017-08-08 11:00:00 17.7 37 Noroeste 58 Oeste 0 -- -- 59
2017-08-08 10:00:00 16.7 32 Oeste 56 Oeste 0 -- -- 65
2017-08-08 09:00:00 15.7 30 Oeste 46 Oeste 0 -- -- 72
2017-08-08 08:00:00 15.3 23 Noroeste 41 Noroeste 0 -- -- 78
2017-08-08 07:00:00 15.5 23 Oeste 42 Noroeste 0 -- -- 79
2017-08-08 06:00:00 16.5 24 Oeste 40 Oeste 0 -- -- 76
2017-08-08 05:00:00 17.2 17 Noroeste 42 Noroeste 0 -- -- 72
2017-08-08 04:00:00 17.8 22 Oeste 42 Oeste 0 -- -- 70
2017-08-08 03:00:00 19 22 Oeste 41 Noroeste 0 -- -- 72
2017-08-08 02:00:00 19.8 25 Noroeste 34 Noroeste 0 -- -- 73
2017-08-08 01:00:00 20.8 15 Oeste 25 Oeste 0 -- -- 74
2017-08-08 00:00:00 24.5 8 Sudeste 41 Este 0 -- -- 66
2017-08-07 23:00:00 25.2 27 Este 44 Este 0 -- -- 66
2017-08-07 22:00:00 26.6 28 Este 43 Este 0 -- -- 60
2017-08-07 21:00:00 27.6 27 Este 53 Este 0 -- -- 57
2017-08-07 20:00:00 29.4 34 Este 58 Este 0 -- -- 53
2017-08-07 19:00:00 29.7 38 Este 57 Este 0 -- -- 51
2017-08-07 18:00:00 30.8 39 Este 54 Este 0 -- -- 49
2017-08-07 17:00:00 31 30 Este 50 Este 0 -- -- 48
2017-08-07 16:00:00 31.8 30 Este 45 Este 0 -- -- 46
2017-08-07 15:00:00 32.5 12 Sudeste 36 Este 0 -- -- 39
2017-08-07 14:00:00 30.6 13 Sudeste 34 Sudeste 0 -- -- 43
2017-08-07 13:00:00 28.8 14 Sudeste 32 Sudeste 0 -- -- 52
2017-08-07 12:00:00 27.2 13 Sudeste 29 Este 0 -- -- 59
2017-08-07 11:00:00 24.4 21 Este 30 Este 0 -- -- 70
2017-08-07 10:00:00 22.5 13 Este 25 Sudeste 0 -- -- 77
2017-08-07 09:00:00 19.2 5 Oeste 9 Oeste 0 -- -- 71
2017-08-07 08:00:00 18.4 4 Oeste 9 Oeste 0 -- -- 72
2017-08-07 07:00:00 18.6 5 Oeste 8 Oeste 0 -- -- 71
2017-08-07 06:00:00 18.4 3 Este 10 Oeste 0 -- -- 71
2017-08-07 05:00:00 18.6 4 Noroeste 5 Oeste 0 -- -- 70
2017-08-07 04:00:00 19.2 3 Oeste 9 Oeste 0 -- -- 68
2017-08-07 03:00:00 20.1 4 Noroeste 8 Oeste 0 -- -- 64
2017-08-07 02:00:00 20.4 2 Oeste 6 Oeste 0 -- -- 63
2017-08-07 01:00:00 20.6 5 Sudoeste 10 Oeste 0 -- -- 63
2017-08-07 00:00:00 22 3 Oeste 11 Oeste 0 -- -- 58
2017-08-06 23:00:00 23 0 Calma 9 Noroeste 0 -- -- 53
2017-08-06 22:00:00 23.9 4 Oeste 15 Noroeste 0 -- -- 52
2017-08-06 21:00:00 25.8 8 Noroeste 15 Oeste 0 -- -- 47
2017-08-06 20:00:00 28 7 Noroeste 18 Noroeste 0 -- -- 43
2017-08-06 19:00:00 28.1 8 Oeste 27 Oeste 0 -- -- 43
2017-08-06 18:00:00 28.2 10 Oeste 27 Oeste 0 -- -- 43
2017-08-06 17:00:00 27.5 17 Oeste 29 Oeste 0 -- -- 44
2017-08-06 16:00:00 26.5 16 Oeste 27 Oeste 0 -- -- 46
2017-08-06 15:00:00 25.5 15 Oeste 28 Oeste 0 -- -- 48
2017-08-06 14:00:00 23.9 13 Oeste 25 Oeste 0 -- -- 50
2017-08-06 13:00:00 21.9 19 Oeste 31 Oeste 0 -- -- 54
2017-08-06 12:00:00 20 18 Oeste 33 Oeste 0 -- -- 57
2017-08-06 11:00:00 17.8 20 Oeste 33 Oeste 0 -- -- 63
2017-08-06 10:00:00 16.3 22 Oeste 30 Oeste 0 -- -- 68
2017-08-06 09:00:00 15 19 Oeste 32 Oeste 0 -- -- 72
2017-08-06 08:00:00 14.5 21 Oeste 27 Oeste 0 -- -- 75
2017-08-06 07:00:00 14 16 Oeste 32 Oeste 0 -- -- 77
2017-08-06 06:00:00 14.3 22 Oeste 29 Oeste 0 -- -- 78
2017-08-06 05:00:00 14.6 21 Oeste 37 Noroeste 0 -- -- 83
2017-08-06 04:00:00 15.1 23 Oeste 43 Oeste 0 -- -- 84
2017-08-06 03:00:00 15.7 23 Oeste 36 Oeste 0 -- -- 85
2017-08-06 02:00:00 15.6 23 Oeste 36 Oeste 0 -- -- 86
2017-08-06 01:00:00 15.9 27 Oeste 39 Oeste 0 -- -- 83
2017-08-06 00:00:00 16.3 27 Oeste 40 Oeste 0 -- -- 84
2017-08-05 23:00:00 17.6 28 Oeste 42 Oeste 0 -- -- 74
2017-08-05 22:00:00 19.7 22 Oeste 33 Oeste 0 -- -- 67
2017-08-05 21:00:00 21.3 25 Oeste 39 Oeste 0 -- -- 62
2017-08-05 20:00:00 24.1 19 Noroeste 41 Noroeste 0 -- -- 57
2017-08-05 19:00:00 26.3 24 Oeste 48 Oeste 0 -- -- 53
2017-08-05 18:00:00 28.8 27 Noroeste 46 Oeste 0 -- -- 48
2017-08-05 17:00:00 30.2 28 Oeste 43 Oeste 0 -- -- 47
2017-08-05 16:00:00 30.9 26 Oeste 41 Oeste 0 -- -- 46
2017-08-05 15:00:00 30 28 Oeste 39 Oeste 0 -- -- 49
2017-08-05 14:00:00 30 25 Oeste 39 Oeste 0 -- -- 50
2017-08-05 13:00:00 28.3 19 Oeste 33 Oeste 0 -- -- 53
2017-08-05 12:00:00 26.6 19 Oeste 30 Oeste 0 -- -- 60
2017-08-05 11:00:00 24.6 17 Oeste 26 Oeste 0 -- -- 64
2017-08-05 10:00:00 23.4 15 Oeste 23 Oeste 0 -- -- 68
2017-08-05 09:00:00 20.9 5 Noroeste 10 Noroeste 0 -- -- 77
2017-08-05 08:00:00 19.7 3 Oeste 8 Oeste 0 -- -- 79
2017-08-05 07:00:00 20 0 Calma 7 Nordeste 0 -- -- 76
2017-08-05 06:00:00 21 3 Nordeste 6 Oeste 0 -- -- 74
2017-08-05 05:00:00 21.4 0 Calma 6 Sudoeste 0 -- -- 71
2017-08-05 04:00:00 22.6 0 Calma 5 Nordeste 0 -- -- 67
2017-08-05 03:00:00 23.2 0 Calma 7 Oeste 0 -- -- 66
2017-08-05 02:00:00 23.4 5 Oeste 18 Oeste 0 -- -- 66
2017-08-05 01:00:00 24.1 13 Oeste 22 Oeste 0 -- -- 60
2017-08-05 00:00:00 25.9 0 Calma 10 Oeste 0 -- -- 51
2017-08-04 23:00:00 28.8 3 Este 17 Noroeste 0 -- -- 43
2017-08-04 22:00:00 30.2 12 Noroeste 19 Noroeste 0 -- -- 40
2017-08-04 21:00:00 31.9 13 Noroeste 23 Noroeste 0 -- -- 38
2017-08-04 20:00:00 33.8 15 Noroeste 32 Oeste 0 -- -- 35
2017-08-04 19:00:00 34.8 14 Oeste 36 Noroeste 0 -- -- 32
2017-08-04 18:00:00 34.9 16 Noroeste 28 Oeste 0 -- -- 32
2017-08-04 17:00:00 34.4 19 Oeste 35 Oeste 0 -- -- 32
2017-08-04 16:00:00 34.1 22 Oeste 37 Oeste 0 -- -- 32
2017-08-04 15:00:00 33.2 14 Oeste 40 Oeste 0 -- -- 36
2017-08-04 14:00:00 31.5 17 Noroeste 31 Oeste 0 -- -- 39
2017-08-04 13:00:00 28.9 21 Oeste 31 Oeste 0 -- -- 48
2017-08-04 12:00:00 27.4 22 Oeste 29 Oeste 0 -- -- 53
2017-08-04 11:00:00 25.4 17 Oeste 25 Oeste 0 -- -- 58
2017-08-04 10:00:00 23 16 Oeste 25 Oeste 0 -- -- 67
2017-08-04 09:00:00 21.2 12 Oeste 15 Oeste 0 -- -- 75
2017-08-04 08:00:00 19.1 0 Calma 7 Este 0 -- -- 82
2017-08-04 07:00:00 18.9 2 Nordeste 6 Noroeste 0 -- -- 80
2017-08-04 06:00:00 19.6 0 Calma 6 Oeste 0 -- -- 78
2017-08-04 05:00:00 20.4 2 Oeste 6 Oeste 0 -- -- 77
2017-08-04 04:00:00 20.6 5 Noroeste 10 Oeste 0 -- -- 76
2017-08-04 03:00:00 22.3 3 Oeste 8 Este 0 -- -- 64
2017-08-04 02:00:00 23.3 5 Este 6 Este 0 -- -- 52
2017-08-04 01:00:00 24.8 5 Oeste 14 Oeste 0 -- -- 55
2017-08-04 00:00:00 25.2 11 Este 16 Este 0 -- -- 34
2017-08-03 23:00:00 27 12 Nordeste 15 Nordeste 0 -- -- 31
2017-08-03 22:00:00 28.9 8 Nordeste 12 Nordeste 0 -- -- 28
2017-08-03 21:00:00 34.2 3 Norte 10 Nordeste 0 -- -- 22
2017-08-03 20:00:00 36.4 6 Noroeste 15 Oeste 0 -- -- 20
2017-08-03 19:00:00 36.4 9 Oeste 21 Oeste 0 -- -- 20
2017-08-03 18:00:00 36.4 13 Oeste 23 Oeste 0 -- -- 20
2017-08-03 17:00:00 36.5 14 Sudoeste 25 Oeste 0 -- -- 19
2017-08-03 16:00:00 35.9 10 Sudoeste 23 Oeste 0 -- -- 20
2017-08-03 15:00:00 34.6 13 Oeste 26 Oeste 0 -- -- 25
2017-08-03 14:00:00 33.3 14 Oeste 26 Oeste 0 -- -- 34
2017-08-03 13:00:00 31.1 14 Oeste 25 Oeste 0 -- -- 43
2017-08-03 12:00:00 29.2 17 Oeste 26 Sudoeste 0 -- -- 46
2017-08-03 11:00:00 28.2 15 Oeste 21 Oeste 0 -- -- 49
2017-08-03 10:00:00 26.3 9 Oeste 15 Oeste 0 -- -- 52
2017-08-03 09:00:00 26.7 5 Este 14 Nordeste 0 -- -- 49
2017-08-03 08:00:00 22.9 11 Nordeste 17 Este 0 -- -- 56
2017-08-03 07:00:00 22.8 8 Este 18 Este 0 -- -- 58
2017-08-03 06:00:00 22.8 14 Este 19 Este 0 -- -- 61
2017-08-03 05:00:00 23 15 Este 24 Este 0 -- -- 62
2017-08-03 04:00:00 23.5 19 Este 31 Este 0 -- -- 61
2017-08-03 03:00:00 24.3 16 Este 29 Este 0 -- -- 58
2017-08-03 02:00:00 25.6 17 Este 27 Este 0 -- -- 53
2017-08-03 01:00:00 26.6 22 Este 30 Este 0 -- -- 48
2017-08-03 00:00:00 27.1 17 Este 24 Este 0 -- -- 46
2017-08-02 23:00:00 27.6 19 Este 32 Este 0 -- -- 42
2017-08-02 22:00:00 28.9 20 Este 29 Este 0 -- -- 37
2017-08-02 21:00:00 30.8 18 Este 40 Sudeste 0 -- -- 33
2017-08-02 20:00:00 31.9 23 Sudeste 42 Este 0 -- -- 31
2017-08-02 19:00:00 32.9 26 Sudeste 41 Sudeste 0 -- -- 29
2017-08-02 18:00:00 34.2 23 Sudeste 63 Sudeste 0 -- -- 25
2017-08-02 17:00:00 33.3 14 Sudoeste 34 Sudoeste 0 -- -- 25
2017-08-02 16:00:00 32.5 14 Sur 38 Sudeste 0 -- -- 27
2017-08-02 15:00:00 32.3 14 Sudoeste 31 Sudeste 0 -- -- 34
2017-08-02 14:00:00 30.8 20 Sudeste 37 Este 0 -- -- 37
2017-08-02 13:00:00 31 11 Sur 30 Sudoeste 0 -- -- 39
2017-08-02 12:00:00 29.7 12 Sudeste 37 Este 0 -- -- 47
2017-08-02 11:00:00 28.2 13 Este 24 Este 0 -- -- 53
2017-08-02 10:00:00 22.5 6 Oeste 20 Oeste 0 -- -- 69
2017-08-02 09:00:00 22 3 Sudeste 13 Nordeste 0 -- -- 73
2017-08-02 08:00:00 18.8 5 Noroeste 8 Oeste 0 -- -- 81
2017-08-02 07:00:00 18.1 4 Noroeste 10 Noroeste 0 -- -- 83
2017-08-02 06:00:00 18.2 6 Oeste 20 Este 0 -- -- 80
2017-08-02 05:00:00 21.5 11 Este 20 Este 0 -- -- 80
2017-08-02 04:00:00 21.4 13 Este 17 Este 0 -- -- 83
2017-08-02 03:00:00 20.6 6 Nordeste 10 Oeste 0 -- -- 81
2017-08-02 02:00:00 21.2 4 Oeste 9 Este 0 -- -- 70
2017-08-02 01:00:00 23.2 9 Este 18 Nordeste 0 -- -- 69
2017-08-02 00:00:00 23.9 11 Este 17 Nordeste 0 -- -- 65
2017-08-01 23:00:00 25 4 Este 21 Este 0 -- -- 61
2017-08-01 22:00:00 26.7 10 Este 15 Este 0 -- -- 54
2017-08-01 21:00:00 28.9 6 Este 27 Este 0 -- -- 48
2017-08-01 20:00:00 30.5 19 Este 31 Este 0 -- -- 45
2017-08-01 19:00:00 32.1 16 Este 34 Este 0 -- -- 38
2017-08-01 18:00:00 32.2 20 Este 36 Este 0 -- -- 34
2017-08-01 17:00:00 32.4 8 Oeste 26 Oeste 0 -- -- 39
2017-08-01 16:00:00 32.5 7 Sur 18 Oeste 0 -- -- 41
2017-08-01 15:00:00 30.1 12 Sudoeste 18 Oeste 0 -- -- 44
2017-08-01 14:00:00 27 10 Sudoeste 20 Oeste 0 -- -- 52
2017-08-01 13:00:00 24.8 6 Sudoeste 17 Sudoeste 0 -- -- 58
2017-08-01 12:00:00 21.5 12 Sudoeste 22 Oeste 0 -- -- 68
2017-08-01 11:00:00 19.7 10 Oeste 19 Oeste 0 -- -- 71
2017-08-01 10:00:00 18.4 17 Oeste 25 Oeste 0 -- -- 76
2017-08-01 09:00:00 17.5 7 Oeste 12 Oeste 0 -- -- 78
2017-08-01 08:00:00 16.8 6 Oeste 13 Sudoeste 0 -- -- 80
2017-08-01 07:00:00 16.4 8 Oeste 23 Oeste 0 -- -- 80
2017-08-01 06:00:00 17 8 Oeste 18 Oeste 0 -- -- 78
2017-08-01 05:00:00 17.3 4 Noroeste 15 Oeste 0 -- -- 78
2017-08-01 04:00:00 17.4 5 Oeste 21 Noroeste 0 -- -- 80
2017-08-01 03:00:00 18.2 14 Noroeste 21 Oeste 0 -- -- 78
2017-08-01 02:00:00 18.1 14 Oeste 21 Noroeste 0 -- -- 79
2017-08-01 01:00:00 18.6 14 Oeste 22 Oeste 0 -- -- 78
2017-08-01 00:00:00 20.5 14 Oeste 24 Oeste 0 -- -- 72
2017-07-31 23:00:00 22.9 20 Oeste 31 Oeste 0 -- -- 65
2017-07-31 22:00:00 28.7 5 Sudoeste 38 Este 0 -- -- 44
2017-07-31 21:00:00 30.4 24 Este 39 Este 0 -- -- 40
2017-07-31 20:00:00 32.5 28 Este 38 Este 0 -- -- 39
2017-07-31 19:00:00 33 26 Este 40 Nordeste 0 -- -- 41
2017-07-31 18:00:00 33.8 26 Este 48 Este 0 -- -- 41
2017-07-31 17:00:00 34 31 Este 51 Este 0 -- -- 38
2017-07-31 16:00:00 33.5 15 Sudeste 30 Este 0 -- -- 37
2017-07-31 15:00:00 32 13 Sudeste 39 Este 0 -- -- 41
2017-07-31 14:00:00 30.8 18 Este 33 Nordeste 0 -- -- 46
2017-07-31 13:00:00 28.6 15 Sudeste 32 Sudeste 0 -- -- 53
2017-07-31 12:00:00 26.3 15 Sudeste 23 Este 0 -- -- 61
2017-07-31 11:00:00 21.7 3 Sudeste 10 Nordeste 0 -- -- 71
2017-07-31 10:00:00 19 2 Norte 8 Oeste 0 -- -- 73
2017-07-31 09:00:00 18 2 Oeste 6 Oeste 0 -- -- 76
2017-07-31 08:00:00 17.4 3 Oeste 7 Oeste 0 -- -- 78
2017-07-31 07:00:00 17.1 4 Noroeste 9 Oeste 0 -- -- 79
2017-07-31 06:00:00 16.9 5 Oeste 9 Oeste 0 -- -- 80
2017-07-31 05:00:00 16.9 5 Noroeste 12 Noroeste 0 -- -- 81
2017-07-31 04:00:00 17.1 6 Oeste 17 Noroeste 0 -- -- 80
2017-07-31 03:00:00 17.9 9 Oeste 22 Oeste 0 -- -- 78
2017-07-31 02:00:00 20.1 8 Noroeste 21 Noroeste 0 -- -- 71
2017-07-31 01:00:00 20.8 16 Oeste 24 Oeste 0 -- -- 70
2017-07-31 00:00:00 22.5 8 Noroeste 22 Oeste 0 -- -- 66
2017-07-30 23:00:00 24.2 17 Oeste 32 Oeste 0 -- -- 61
2017-07-30 22:00:00 30.7 9 Este 29 Este 0 -- -- 39
2017-07-30 21:00:00 32.5 19 Este 36 Este 0 -- -- 37
2017-07-30 20:00:00 34.2 24 Este 34 Este 0 -- -- 34
2017-07-30 19:00:00 36.9 8 Sur 17 Este 0 -- -- 23
2017-07-30 18:00:00 37.2 9 Sudeste 23 Sur 0 -- -- 24
2017-07-30 17:00:00 36.1 13 Sudoeste 22 Sudoeste 0 -- -- 25
2017-07-30 16:00:00 36.1 18 Sudoeste 29 Sudoeste 0 -- -- 24
2017-07-30 15:00:00 35 17 Sudoeste 30 Sudeste 0 -- -- 27
2017-07-30 14:00:00 33.9 12 Sudeste 24 Sur 0 -- -- 37
2017-07-30 13:00:00 31 6 Sudeste 27 Oeste 0 -- -- 46
2017-07-30 12:00:00 28 18 Oeste 26 Oeste 0 -- -- 58
2017-07-30 11:00:00 28.7 3 Este 17 Este 0 -- -- 50
2017-07-30 10:00:00 25.6 3 Sudeste 10 Oeste 0 -- -- 65
2017-07-30 09:00:00 23.5 4 Este 7 Este 0 -- -- 73
2017-07-30 08:00:00 22 3 Noroeste 10 Este 0 -- -- 76
2017-07-30 07:00:00 22.4 4 Este 18 Este 0 -- -- 72
2017-07-30 06:00:00 22.5 14 Este 21 Este 0 -- -- 74
2017-07-30 05:00:00 22.9 13 Este 21 Este 0 -- -- 75
2017-07-30 04:00:00 23.2 13 Este 24 Este 0 -- -- 73
2017-07-30 03:00:00 23.9 14 Este 26 Este 0 -- -- 71
2017-07-30 02:00:00 25.2 12 Este 22 Este 0 -- -- 64
2017-07-30 01:00:00 27.1 14 Este 27 Este 0 -- -- 56
2017-07-30 00:00:00 27.5 14 Este 27 Este 0 -- -- 57
2017-07-29 23:00:00 29 19 Sudeste 30 Sudeste 0 -- -- 53
2017-07-29 22:00:00 30 20 Este 29 Este 0 -- -- 48
2017-07-29 21:00:00 31.9 17 Este 29 Este 0 -- -- 41
2017-07-29 20:00:00 33.4 23 Este 35 Este 0 -- -- 37
2017-07-29 19:00:00 34.7 14 Este 25 Este 0 -- -- 33
2017-07-29 18:00:00 36.2 7 Sudoeste 19 Oeste 0 -- -- 24
2017-07-29 17:00:00 35.4 10 Este 23 Sudeste 0 -- -- 28
2017-07-29 16:00:00 34.6 12 Este 27 Este 0 -- -- 32
2017-07-29 15:00:00 33.3 9 Este 25 Sudeste 0 -- -- 37
2017-07-29 14:00:00 31.6 13 Este 24 Sudeste 0 -- -- 44
2017-07-29 13:00:00 29.5 13 Sudeste 24 Este 0 -- -- 50
2017-07-29 12:00:00 28 17 Este 31 Este 0 -- -- 58
2017-07-29 11:00:00 26.7 19 Este 29 Este 0 -- -- 60
2017-07-29 10:00:00 25.6 14 Sudeste 23 Sudeste 0 -- -- 61
2017-07-29 09:00:00 23.2 8 Este 12 Nordeste 0 -- -- 68
2017-07-29 08:00:00 19.8 5 Nordeste 8 Nordeste 0 -- -- 64
2017-07-29 07:00:00 18.7 5 Este 11 Nordeste 0 -- -- 59
2017-07-29 06:00:00 19.6 5 Nordeste 10 Nordeste 0 -- -- 49
2017-07-29 05:00:00 19.6 9 Nordeste 12 Nordeste 0 -- -- 45
2017-07-29 04:00:00 19.1 6 Este 11 Nordeste 0 -- -- 45
2017-07-29 03:00:00 19.5 8 Este 10 Este 0 -- -- 47
2017-07-29 02:00:00 20.9 4 Nordeste 10 Este 0 -- -- 42
2017-07-29 01:00:00 22.4 4 Este 14 Noroeste 0 -- -- 50
2017-07-29 00:00:00 24.1 10 Oeste 16 Oeste 0 -- -- 50
2017-07-28 23:00:00 26.1 4 Este 8 Oeste 0 -- -- 44
2017-07-28 22:00:00 29.2 5 Oeste 11 Noroeste 0 -- -- 37
2017-07-28 21:00:00 31.9 8 Noroeste 16 Noroeste 0 -- -- 31
2017-07-28 20:00:00 33.8 6 Noroeste 19 Noroeste 0 -- -- 27
2017-07-28 19:00:00 34.4 9 Noroeste 19 Oeste 0 -- -- 26
2017-07-28 18:00:00 35 14 Oeste 26 Este 0 -- -- 27
2017-07-28 17:00:00 34.9 7 Sur 22 Nordeste 0 -- -- 30
2017-07-28 16:00:00 33.7 8 Oeste 20 Oeste 0 -- -- 32
2017-07-28 15:00:00 31.5 8 Oeste 23 Oeste 0 -- -- 37
2017-07-28 14:00:00 30.7 9 Oeste 21 Sudoeste 0 -- -- 40
2017-07-28 13:00:00 28.4 10 Sudoeste 18 Sudoeste 0 -- -- 47
2017-07-28 12:00:00 25.8 8 Oeste 19 Oeste 0 -- -- 56
2017-07-28 11:00:00 23.2 13 Oeste 21 Oeste 0 -- -- 65
2017-07-28 10:00:00 21.1 17 Oeste 21 Oeste 0 -- -- 73
2017-07-28 09:00:00 19.2 10 Sudoeste 13 Sudoeste 0 -- -- 81
2017-07-28 08:00:00 17.8 7 Oeste 15 Noroeste 0 -- -- 86
2017-07-28 07:00:00 18 8 Oeste 22 Oeste 0 -- -- 84
2017-07-28 06:00:00 17.6 6 Oeste 13 Noroeste 0 -- -- 84
2017-07-28 05:00:00 18 6 Oeste 15 Oeste 0 -- -- 80
2017-07-28 04:00:00 18.4 5 Oeste 14 Noroeste 0 -- -- 79
2017-07-28 03:00:00 18.9 13 Oeste 17 Oeste 0 -- -- 77
2017-07-28 02:00:00 20.2 12 Oeste 16 Oeste 0 -- -- 70
2017-07-28 01:00:00 20.5 13 Oeste 18 Oeste 0 -- -- 68
2017-07-28 00:00:00 22.1 13 Oeste 18 Oeste 0 -- -- 60
2017-07-27 23:00:00 25.2 5 Oeste 10 Oeste 0 -- -- 45
2017-07-27 22:00:00 28.6 8 Noroeste 19 Noroeste 0 -- -- 36
2017-07-27 21:00:00 31.5 6 Noroeste 23 Oeste 0 -- -- 30
2017-07-27 20:00:00 32.5 17 Oeste 24 Oeste 0 -- -- 27
2017-07-27 19:00:00 33.3 12 Noroeste 25 Oeste 0 -- -- 25
2017-07-27 18:00:00 33.6 14 Oeste 26 Oeste 0 -- -- 27
2017-07-27 17:00:00 33.4 11 Oeste 22 Oeste 0 -- -- 27
2017-07-27 16:00:00 33.1 10 Oeste 29 Oeste 0 -- -- 27
2017-07-27 15:00:00 31.9 17 Oeste 26 Sudoeste 0 -- -- 27
2017-07-27 14:00:00 30.4 14 Sudoeste 24 Sudoeste 0 -- -- 29
2017-07-27 13:00:00 28.6 14 Sudoeste 24 Sudoeste 0 -- -- 29
2017-07-27 12:00:00 27.3 13 Oeste 21 Sudoeste 0 -- -- 27
2017-07-27 11:00:00 24.2 13 Oeste 24 Oeste 0 -- -- 35
2017-07-27 10:00:00 22.2 9 Oeste 15 Oeste 0 -- -- 42
2017-07-27 09:00:00 18.6 5 Oeste 9 Sudoeste 0 -- -- 64
2017-07-27 08:00:00 16.8 5 Oeste 8 Oeste 0 -- -- 72
2017-07-27 07:00:00 17 4 Noroeste 7 Oeste 0 -- -- 65
2017-07-27 06:00:00 16.5 4 Este 6 Noroeste 0 -- -- 68
2017-07-27 05:00:00 17.7 5 Oeste 13 Noroeste 0 -- -- 65
2017-07-27 04:00:00 17.9 7 Oeste 19 Oeste 0 -- -- 67
2017-07-27 03:00:00 20.2 15 Noroeste 27 Noroeste 0 -- -- 53
2017-07-27 02:00:00 19.8 16 Oeste 25 Oeste 0 -- -- 62
2017-07-27 01:00:00 20.2 11 Oeste 23 Noroeste 0 -- -- 62
2017-07-27 00:00:00 19.3 13 Oeste 18 Oeste 0 -- -- 66
2017-07-26 23:00:00 22.3 10 Noroeste 26 Noroeste 0 -- -- 53
2017-07-26 22:00:00 23.4 17 Noroeste 27 Noroeste 0 -- -- 49
2017-07-26 21:00:00 25.2 13 Oeste 33 Noroeste 0 -- -- 42
2017-07-26 20:00:00 27.4 15 Noroeste 37 Noroeste 0 -- -- 40
2017-07-26 19:00:00 28 22 Oeste 41 Noroeste 0 -- -- 40
2017-07-26 18:00:00 28.3 24 Noroeste 46 Oeste 0 -- -- 39
2017-07-26 17:00:00 28.2 27 Noroeste 49 Oeste 0 -- -- 40
2017-07-26 16:00:00 27.4 26 Oeste 46 Oeste 0 -- -- 43
2017-07-26 15:00:00 26 25 Oeste 44 Oeste 0 -- -- 45
2017-07-26 14:00:00 24.9 28 Oeste 46 Oeste 0 -- -- 46
2017-07-26 13:00:00 23 26 Oeste 43 Oeste 0 -- -- 50
2017-07-26 12:00:00 20.7 23 Oeste 47 Oeste 0 -- -- 55
2017-07-26 11:00:00 18.6 25 Oeste 39 Oeste 0 -- -- 61
2017-07-26 10:00:00 16.8 24 Oeste 39 Oeste 0 -- -- 68
2017-07-26 09:00:00 15 19 Oeste 38 Oeste 0 -- -- 75
2017-07-26 08:00:00 13.6 15 Oeste 36 Oeste 0 -- -- 79
2017-07-26 07:00:00 13.1 21 Oeste 35 Noroeste 0 -- -- 79
2017-07-26 06:00:00 13.3 20 Oeste 46 Oeste 0 -- -- 78
2017-07-26 05:00:00 13.9 24 Noroeste 54 Noroeste 0 -- -- 76
2017-07-26 04:00:00 14.1 25 Noroeste 45 Oeste 0 -- -- 75
2017-07-26 03:00:00 14.2 27 Noroeste 46 Norte 0 -- -- 74
2017-07-26 02:00:00 14.3 23 Oeste 39 Oeste 0 -- -- 75
2017-07-26 01:00:00 15.1 15 Oeste 49 Oeste 0 -- -- 73
2017-07-26 00:00:00 15.5 18 Noroeste 43 Noroeste 0 -- -- 71
2017-07-25 23:00:00 16 25 Oeste 46 Noroeste 0 -- -- 68
2017-07-25 22:00:00 17.1 30 Oeste 51 Noroeste 0 -- -- 62
2017-07-25 21:00:00 18.8 33 Oeste 54 Noroeste 0 -- -- 57
2017-07-25 20:00:00 20 33 Oeste 56 Oeste 0 -- -- 55
2017-07-25 19:00:00 22 27 Oeste 56 Oeste 0 -- -- 48
2017-07-25 18:00:00 22.3 36 Oeste 57 Oeste 0 -- -- 47
2017-07-25 17:00:00 22.7 31 Noroeste 59 Oeste 0 -- -- 47
2017-07-25 16:00:00 23.1 28 Oeste 57 Noroeste 0 -- -- 46
2017-07-25 15:00:00 22.3 30 Oeste 61 Oeste 0 -- -- 51
2017-07-25 14:00:00 21.5 34 Oeste 60 Oeste 0 -- -- 54
2017-07-25 13:00:00 21.3 27 Oeste 56 Oeste 0 -- -- 54
2017-07-25 12:00:00 20.3 33 Oeste 58 Oeste 0 -- -- 56
2017-07-25 11:00:00 18.8 30 Oeste 51 Oeste 0 -- -- 61
2017-07-25 10:00:00 16.9 30 Oeste 44 Oeste 0 -- -- 69
2017-07-25 09:00:00 15.6 22 Oeste 44 Oeste 0 -- -- 73
2017-07-25 08:00:00 14.4 20 Noroeste 45 Noroeste 0 -- -- 76
2017-07-25 07:00:00 13.6 23 Oeste 42 Noroeste 0 -- -- 80
2017-07-25 06:00:00 14.4 28 Noroeste 46 Oeste 0 -- -- 77
2017-07-25 05:00:00 14.7 26 Noroeste 48 Oeste 0 -- -- 77
2017-07-25 04:00:00 14.9 26 Noroeste 55 Noroeste 0 -- -- 79
2017-07-25 03:00:00 15.3 26 Noroeste 50 Oeste 0 -- -- 75
2017-07-25 02:00:00 15.3 26 Oeste 49 Noroeste 0 -- -- 76
2017-07-25 01:00:00 15.7 24 Oeste 50 Noroeste 0 -- -- 76
2017-07-25 00:00:00 16.5 27 Oeste 49 Oeste 0 -- -- 74
2017-07-24 23:00:00 17 21 Noroeste 48 Noroeste 0 -- -- 73
2017-07-24 22:00:00 18.2 27 Noroeste 47 Noroeste 0 -- -- 68
2017-07-24 21:00:00 19.7 28 Noroeste 58 Noroeste 0 -- -- 62
2017-07-24 20:00:00 21.3 34 Noroeste 54 Noroeste 0 -- -- 55
2017-07-24 19:00:00 22.6 36 Noroeste 65 Noroeste 0 -- -- 51
2017-07-24 18:00:00 24.2 31 Noroeste 62 Noroeste 0 -- -- 47
2017-07-24 17:00:00 24.2 28 Noroeste 51 Oeste 0 -- -- 46
2017-07-24 16:00:00 24.1 30 Noroeste 51 Noroeste 0 -- -- 47
2017-07-24 15:00:00 24.4 27 Noroeste 56 Oeste 0 -- -- 45
2017-07-24 14:00:00 23.4 33 Noroeste -- -- -- -- -- 50
2017-07-24 13:00:00 23.5 30 Noroeste 54 Noroeste 0 -- -- 50
2017-07-24 12:00:00 22.2 26 Noroeste 46 Noroeste 0 -- -- 57
2017-07-24 11:00:00 21.3 23 Noroeste 40 Noroeste 0 -- -- 62
2017-07-24 10:00:00 20.3 23 Noroeste 42 Noroeste 0 -- -- 66
2017-07-24 09:00:00 18.6 16 Oeste 32 Oeste 0 -- -- 75
2017-07-24 08:00:00 18 16 Oeste 23 Oeste 0 -- -- 77
2017-07-24 07:00:00 15.8 9 Oeste 19 Oeste 0 -- -- 85
2017-07-24 06:00:00 17.4 14 Noroeste 30 Noroeste 0 -- -- 78
2017-07-24 05:00:00 17.2 13 Noroeste 29 Oeste 0 -- -- 79
2017-07-24 04:00:00 16.9 15 Oeste 27 Oeste 0 -- -- 77
2017-07-24 03:00:00 16.8 22 Oeste 32 Oeste 0 -- -- 74
2017-07-24 02:00:00 17.5 17 Oeste 28 Noroeste 0 -- -- 68
2017-07-24 01:00:00 17.9 18 Oeste 37 Oeste 0 -- -- 62
2017-07-24 00:00:00 18.9 14 Oeste 32 Noroeste 0 -- -- 56
2017-07-23 23:00:00 20 23 Noroeste 35 Noroeste 0 -- -- 53
2017-07-23 22:00:00 22 19 Noroeste 30 Noroeste 0 -- -- 47
2017-07-23 21:00:00 24.8 19 Noroeste 38 Noroeste 0 -- -- 38
2017-07-23 20:00:00 26.4 20 Noroeste 40 Oeste 0 -- -- 41
2017-07-23 19:00:00 28.3 13 Noroeste 28 Noroeste 0 -- -- 46
2017-07-23 18:00:00 29.1 10 Noroeste 25 Oeste 0 -- -- 44
2017-07-23 17:00:00 28.6 18 Oeste 25 Oeste 0 -- -- 46
2017-07-23 16:00:00 -- -- -- -- -- -- -- -- --
2017-07-23 15:00:00 -- -- -- -- -- -- -- -- --
2017-07-23 14:00:00 -- -- -- -- -- -- -- -- --
2017-07-23 13:00:00 -- -- -- -- -- -- -- -- --
2017-07-23 12:00:00 -- -- -- -- -- -- -- -- --
2017-07-23 11:00:00 -- -- -- -- -- -- -- -- --
2017-07-23 10:00:00 -- -- -- -- -- -- -- -- --
2017-07-23 09:00:00 -- -- -- -- -- -- -- -- --
2017-07-23 08:00:00 -- -- -- -- -- -- -- -- --
2017-07-23 07:00:00 -- -- -- -- -- -- -- -- --
2017-07-23 06:00:00 -- -- -- -- -- -- -- -- --
2017-07-23 05:00:00 -- -- -- -- -- -- -- -- --
2017-07-23 04:00:00 -- -- -- -- -- -- -- -- --
2017-07-23 03:00:00 -- -- -- -- -- -- -- -- --
2017-07-23 02:00:00 -- -- -- -- -- -- -- -- --
2017-07-23 01:00:00 -- -- -- -- -- -- -- -- --
2017-07-23 00:00:00 -- -- -- -- -- -- -- -- --